Hutto, Texas
Current Conditions -  °F | °C
As of 4:55 PM on Wednesday 22 Oct 2014 (Local Time) from KEDC Reporting Station
Few Clouds Few Clouds  
Wind Chill: 81°   Ceiling: Unl
Heat Index: 81°   Visibility: 10mi
Dew Point: 57°   Wind: 7mph
Humidity: 45%   Direction: 60°ENE
Pressure: 30.05"   Gusts: NA
Location:  30.54°N, 97.55°W
Report Text: KEDC 222155Z AUTO 06006KT 10SM FEW049 27/14 A3005 RMK AO2
Loading
Personal Weather Stations






























Interactive Weather Map
Tropical Storm Tracking
New forecast layout! Learn more

10-Day Weather Forecast

Advertisements
Track Severe Weather on mobile